createdAt,value
2015-12-30T00:00:04.200Z,74283
2015-12-30T00:00:16.544Z,74291
2015-12-30T00:00:28.888Z,74289
2015-12-30T00:00:41.231Z,74285
2015-12-30T00:00:53.591Z,74290
2015-12-30T00:01:05.984Z,74287
2015-12-30T00:01:18.359Z,74287
2015-12-30T00:01:30.750Z,74283
2015-12-30T00:01:43.141Z,74283
2015-12-30T00:01:55.500Z,74288
2015-12-30T00:02:07.861Z,74287
2015-12-30T00:02:20.205Z,74287
2015-12-30T00:02:32.564Z,74286
2015-12-30T00:02:44.924Z,74284
2015-12-30T00:02:57.283Z,74287
2015-12-30T00:03:09.646Z,74288
2015-12-30T00:03:21.989Z,74286
2015-12-30T00:03:34.364Z,74286
2015-12-30T00:03:46.724Z,74285
2015-12-30T00:03:59.099Z,74280
2015-12-30T00:04:11.492Z,74289
2015-12-30T00:04:23.914Z,74288
2015-12-30T00:04:36.305Z,74283
2015-12-30T00:04:48.977Z,74287
2015-12-30T00:05:01.338Z,74281
2015-12-30T00:05:13.713Z,74283
2015-12-30T00:05:25.432Z,74285
2015-12-30T00:05:37.791Z,74284
2015-12-30T00:05:50.151Z,74282
2015-12-30T00:06:02.530Z,74281
2015-12-30T00:06:14.889Z,74282
2015-12-30T00:06:27.233Z,74284
2015-12-30T00:06:39.623Z,74285
2015-12-30T00:06:51.983Z,74281
2015-12-30T00:07:04.375Z,74285
2015-12-30T00:07:16.750Z,74273
2015-12-30T00:07:29.110Z,74279
2015-12-30T00:07:41.469Z,74281
2015-12-30T00:07:53.844Z,74284
2015-12-30T00:08:06.206Z,74283
2015-12-30T00:08:18.550Z,74278
2015-12-30T00:08:30.910Z,74280
2015-12-30T00:08:43.253Z,74280
2015-12-30T00:08:55.613Z,74280
2015-12-30T00:09:07.974Z,74279
2015-12-30T00:09:20.333Z,74285
2015-12-30T00:09:32.724Z,74280
2015-12-30T00:09:45.115Z,74279
2015-12-30T00:09:56.771Z,74282
2015-12-30T00:10:09.133Z,74280
2015-12-30T00:10:21.477Z,74280
2015-12-30T00:10:33.836Z,74282
2015-12-30T00:10:46.180Z,74283
2015-12-30T00:10:58.555Z,74276
2015-12-30T00:11:10.918Z,74278
2015-12-30T00:11:23.308Z,74278
2015-12-30T00:11:35.699Z,74273
2015-12-30T00:11:48.105Z,74279
2015-12-30T00:12:00.480Z,74276
2015-12-30T00:12:12.873Z,74281
2015-12-30T00:12:25.295Z,74279
2015-12-30T00:12:37.638Z,74279
2015-12-30T00:12:49.982Z,74277
2015-12-30T00:13:02.357Z,74279
2015-12-30T00:13:14.719Z,74278
2015-12-30T00:13:27.079Z,74277
2015-12-30T00:13:39.423Z,74280
2015-12-30T00:13:51.766Z,74277
2015-12-30T00:14:03.985Z,74282
2015-12-30T00:14:16.347Z,74277
2015-12-30T00:14:28.722Z,74277
2015-12-30T00:14:41.113Z,74278
2015-12-30T00:14:53.457Z,74277
2015-12-30T00:15:05.816Z,74284
2015-12-30T00:15:18.193Z,74277
2015-12-30T00:15:30.553Z,74280
2015-12-30T00:15:42.896Z,74283
2015-12-30T00:15:55.256Z,74279
2015-12-30T00:16:07.599Z,74282
2015-12-30T00:16:19.977Z,74283
2015-12-30T00:16:32.181Z,74275
2015-12-30T00:16:44.571Z,74279
2015-12-30T00:16:56.962Z,74274
2015-12-30T00:17:09.352Z,74281
2015-12-30T00:17:21.715Z,74276
2015-12-30T00:17:34.074Z,74273
2015-12-30T00:17:46.434Z,74278
2015-12-30T00:17:58.793Z,74274
2015-12-30T00:18:11.152Z,74277
2015-12-30T00:18:23.515Z,74275
2015-12-30T00:18:35.874Z,74273
2015-12-30T00:18:48.233Z,74275
2015-12-30T00:19:00.593Z,74275
2015-12-30T00:19:12.968Z,74274
2015-12-30T00:19:24.643Z,74272
2015-12-30T00:19:37.033Z,74269
2015-12-30T00:19:49.424Z,74269
2015-12-30T00:20:01.830Z,74273
2015-12-30T00:20:14.190Z,74268
2015-12-30T00:20:26.536Z,74275
2015-12-30T00:20:38.896Z,74276
2015-12-30T00:20:51.255Z,74267
2015-12-30T00:21:03.614Z,74269
2015-12-30T00:21:15.974Z,74278
2015-12-30T00:21:28.335Z,74272
2015-12-30T00:21:40.710Z,74271
2015-12-30T00:21:53.085Z,74265
2015-12-30T00:22:05.460Z,74270
2015-12-30T00:22:17.851Z,74272
2015-12-30T00:22:30.244Z,74276
2015-12-30T00:22:42.604Z,74272
2015-12-30T00:22:54.948Z,74267
2015-12-30T00:23:07.307Z,74268
2015-12-30T00:23:19.510Z,74276
2015-12-30T00:23:31.872Z,74275
2015-12-30T00:23:44.232Z,74273
2015-12-30T00:23:56.576Z,74278
2015-12-30T00:24:08.951Z,74271
2015-12-30T00:24:21.310Z,74267
2015-12-30T00:24:33.672Z,74274
2015-12-30T00:24:46.063Z,74268
2015-12-30T00:24:58.438Z,74273
2015-12-30T00:25:10.079Z,74274
2015-12-30T00:25:22.438Z,74275
2015-12-30T00:25:34.799Z,74271
2015-12-30T00:25:47.159Z,74275
2015-12-30T00:25:59.518Z,74271
2015-12-30T00:26:11.909Z,74275
2015-12-30T00:26:24.268Z,74281
2015-12-30T00:26:36.630Z,74275
2015-12-30T00:26:49.005Z,74270
2015-12-30T00:27:01.396Z,74275
2015-12-30T00:27:13.787Z,74269
2015-12-30T00:27:26.162Z,74269
2015-12-30T00:27:38.523Z,74274
2015-12-30T00:27:50.882Z,74274
2015-12-30T00:28:03.242Z,74273
2015-12-30T00:28:15.601Z,74270
2015-12-30T00:28:27.945Z,74267
2015-12-30T00:28:40.307Z,74264
2015-12-30T00:28:52.667Z,74265
2015-12-30T00:29:05.042Z,74276
2015-12-30T00:29:17.401Z,74270
2015-12-30T00:29:29.760Z,74267
2015-12-30T00:29:42.145Z,74265
2015-12-30T00:29:54.536Z,74263
2015-12-30T00:30:06.895Z,74264
2015-12-30T00:30:19.254Z,74264
2015-12-30T00:30:31.598Z,74265
2015-12-30T00:30:43.948Z,74265
2015-12-30T00:30:56.323Z,74270
2015-12-30T00:31:08.698Z,74262
2015-12-30T00:31:21.041Z,74262
2015-12-30T00:31:33.393Z,74268
2015-12-30T00:31:45.768Z,74267
2015-12-30T00:31:58.127Z,74269
2015-12-30T00:32:10.533Z,74262
2015-12-30T00:32:22.924Z,74266
2015-12-30T00:32:35.306Z,74266
2015-12-30T00:32:47.665Z,74265
2015-12-30T00:33:00.024Z,74260
2015-12-30T00:33:12.384Z,74257
2015-12-30T00:33:24.727Z,74266
2015-12-30T00:33:37.078Z,74260
2015-12-30T00:33:49.437Z,74262
2015-12-30T00:34:01.781Z,74260
2015-12-30T00:34:14.140Z,74260
2015-12-30T00:34:26.531Z,74261
2015-12-30T00:34:38.903Z,74264
2015-12-30T00:34:51.278Z,74262
2015-12-30T00:35:03.684Z,74261
2015-12-30T00:35:15.356Z,74263
2015-12-30T00:35:27.715Z,74259
2015-12-30T00:35:40.074Z,74264
2015-12-30T00:35:52.433Z,74258
2015-12-30T00:36:04.793Z,74260
2015-12-30T00:36:17.136Z,74256
2015-12-30T00:36:29.496Z,74259
2015-12-30T00:36:41.837Z,74259
2015-12-30T00:36:54.197Z,74259
2015-12-30T00:37:06.572Z,74260
2015-12-30T00:37:18.947Z,74257
2015-12-30T00:37:31.337Z,74263
2015-12-30T00:37:43.711Z,74254
2015-12-30T00:37:56.055Z,74259
2015-12-30T00:38:08.415Z,74255
2015-12-30T00:38:20.774Z,74254
2015-12-30T00:38:33.133Z,74264
2015-12-30T00:38:45.475Z,74259
2015-12-30T00:38:57.850Z,74259
2015-12-30T00:39:10.209Z,74259
2015-12-30T00:39:22.600Z,74261
2015-12-30T00:39:34.959Z,74260
2015-12-30T00:39:47.352Z,74256
2015-12-30T00:39:59.727Z,74257
2015-12-30T00:40:12.071Z,74254
2015-12-30T00:40:24.430Z,74254
2015-12-30T00:40:36.790Z,74260
2015-12-30T00:40:49.134Z,74257
2015-12-30T00:41:01.509Z,74259
2015-12-30T00:41:13.853Z,74261
2015-12-30T00:41:26.212Z,74258
2015-12-30T00:41:38.572Z,74257
2015-12-30T00:41:50.948Z,74259
2015-12-30T00:42:03.338Z,74259
2015-12-30T00:42:15.713Z,74257
2015-12-30T00:42:28.088Z,74256
2015-12-30T00:42:40.448Z,74254
2015-12-30T00:42:52.808Z,74253
2015-12-30T00:43:05.168Z,74251
2015-12-30T00:43:17.527Z,74256
2015-12-30T00:43:29.886Z,74258
2015-12-30T00:43:42.246Z,74252
2015-12-30T00:43:54.591Z,74251
2015-12-30T00:44:06.951Z,74255
2015-12-30T00:44:19.326Z,74258
2015-12-30T00:44:31.685Z,74254
2015-12-30T00:44:44.076Z,74257
2015-12-30T00:44:56.467Z,74253
2015-12-30T00:45:08.811Z,74254
2015-12-30T00:45:21.171Z,74253
2015-12-30T00:45:33.514Z,74254
2015-12-30T00:45:45.874Z,74255
2015-12-30T00:45:58.235Z,74258
2015-12-30T00:46:10.594Z,74259
2015-12-30T00:46:22.969Z,74252
2015-12-30T00:46:35.344Z,74253
2015-12-30T00:46:47.721Z,74253
2015-12-30T00:47:00.081Z,74253
2015-12-30T00:47:12.471Z,74259
2015-12-30T00:47:24.815Z,74250
2015-12-30T00:47:37.175Z,74257
2015-12-30T00:47:48.833Z,74250
2015-12-30T00:48:01.177Z,74252
2015-12-30T00:48:13.536Z,74255
2015-12-30T00:48:25.911Z,74247
2015-12-30T00:48:37.552Z,74257
2015-12-30T00:48:49.960Z,74255
2015-12-30T00:49:02.350Z,74255
2015-12-30T00:49:14.757Z,74256
2015-12-30T00:49:27.100Z,74251
2015-12-30T00:49:39.444Z,74254
2015-12-30T00:49:51.806Z,74250
2015-12-30T00:50:04.181Z,74251
2015-12-30T00:50:16.524Z,74248
2015-12-30T00:50:28.899Z,74251
2015-12-30T00:50:41.243Z,74252
2015-12-30T00:50:53.621Z,74251
2015-12-30T00:51:05.996Z,74250
2015-12-30T00:51:18.355Z,74250
2015-12-30T00:51:30.746Z,74248
2015-12-30T00:51:43.105Z,74251
2015-12-30T00:51:54.749Z,74254
2015-12-30T00:52:07.093Z,74246
2015-12-30T00:52:19.452Z,74251
2015-12-30T00:52:31.796Z,74245
2015-12-30T00:52:44.171Z,74252
2015-12-30T00:52:56.565Z,74251
2015-12-30T00:53:08.940Z,74248
2015-12-30T00:53:21.315Z,74246
2015-12-30T00:53:33.674Z,74243
2015-12-30T00:53:46.018Z,74250
2015-12-30T00:53:58.379Z,74250
2015-12-30T00:54:10.035Z,74250
2015-12-30T00:54:22.379Z,74245
2015-12-30T00:54:34.738Z,74243
2015-12-30T00:54:47.082Z,74249
2015-12-30T00:54:59.445Z,74241
2015-12-30T00:55:11.820Z,74251
2015-12-30T00:55:24.179Z,74243
2015-12-30T00:55:36.570Z,74243
2015-12-30T00:55:48.945Z,74240
2015-12-30T00:56:01.307Z,74238
2015-12-30T00:56:13.666Z,74243
2015-12-30T00:56:26.026Z,74243
2015-12-30T00:56:38.385Z,74246
2015-12-30T00:56:50.776Z,74239
2015-12-30T00:57:03.138Z,74244
2015-12-30T00:57:15.513Z,74236
2015-12-30T00:57:27.747Z,74247
2015-12-30T00:57:40.138Z,74241
2015-12-30T00:57:52.497Z,74244
2015-12-30T00:58:04.844Z,74242
2015-12-30T00:58:17.204Z,74247
2015-12-30T00:58:29.563Z,74243
2015-12-30T00:58:41.907Z,74248
2015-12-30T00:58:54.266Z,74244
2015-12-30T00:59:06.627Z,74242
2015-12-30T00:59:19.002Z,74242
2015-12-30T00:59:31.377Z,74247
2015-12-30T00:59:43.768Z,74244
2015-12-30T00:59:56.127Z,74248
2015-12-30T01:00:08.474Z,74240
2015-12-30T01:00:20.130Z,74241
2015-12-30T01:00:32.474Z,74245
2015-12-30T01:00:44.834Z,74242
2015-12-30T01:00:57.193Z,74243
2015-12-30T01:01:09.383Z,74236
2015-12-30T01:01:21.743Z,74243
2015-12-30T01:01:34.087Z,74238
2015-12-30T01:01:46.462Z,74238
2015-12-30T01:01:58.821Z,74244
2015-12-30T01:02:11.058Z,74243
2015-12-30T01:02:23.449Z,74242
2015-12-30T01:02:35.840Z,74237
2015-12-30T01:02:48.215Z,74241
2015-12-30T01:03:00.574Z,74241
2015-12-30T01:03:12.920Z,74245
2015-12-30T01:03:25.279Z,74240
2015-12-30T01:03:37.638Z,74239
2015-12-30T01:03:49.998Z,74242
2015-12-30T01:04:02.342Z,74242
2015-12-30T01:04:14.704Z,74240
2015-12-30T01:04:27.079Z,74243
2015-12-30T01:04:39.438Z,74242
2015-12-30T01:04:51.829Z,74241
2015-12-30T01:05:04.220Z,74245
2015-12-30T01:05:16.613Z,74241
2015-12-30T01:05:29.004Z,74239
2015-12-30T01:05:41.363Z,74247
2015-12-30T01:05:53.754Z,74242
2015-12-30T01:06:06.113Z,74241
2015-12-30T01:06:17.757Z,74239
2015-12-30T01:06:30.116Z,74241
2015-12-30T01:06:42.476Z,74240
2015-12-30T01:06:54.819Z,74243
2015-12-30T01:07:07.179Z,74237
2015-12-30T01:07:19.556Z,74240
2015-12-30T01:07:31.915Z,74239
2015-12-30T01:07:44.306Z,74240
2015-12-30T01:07:56.009Z,74241
2015-12-30T01:08:08.384Z,74239
2015-12-30T01:08:20.731Z,74239
2015-12-30T01:08:33.091Z,74238
2015-12-30T01:08:45.450Z,74241
2015-12-30T01:08:57.794Z,74239
2015-12-30T01:09:09.997Z,74241
2015-12-30T01:09:22.374Z,74243
2015-12-30T01:09:34.718Z,74239
2015-12-30T01:09:47.093Z,74241
2015-12-30T01:09:59.452Z,74238
2015-12-30T01:10:11.812Z,74243
2015-12-30T01:10:24.206Z,74238
2015-12-30T01:10:36.613Z,74242
2015-12-30T01:10:48.831Z,74239
2015-12-30T01:11:01.206Z,74240
2015-12-30T01:11:13.550Z,74238
2015-12-30T01:11:25.912Z,74234
2015-12-30T01:11:38.272Z,74244
2015-12-30T01:11:50.616Z,74235
2015-12-30T01:12:02.959Z,74239
2015-12-30T01:12:15.319Z,74238
2015-12-30T01:12:27.664Z,74238
2015-12-30T01:12:40.039Z,74239
2015-12-30T01:12:52.414Z,74237
2015-12-30T01:13:04.821Z,74239
2015-12-30T01:13:17.213Z,74239
2015-12-30T01:13:29.557Z,74237
2015-12-30T01:13:41.916Z,74239
2015-12-30T01:13:54.276Z,74240
2015-12-30T01:14:06.620Z,74240
2015-12-30T01:14:18.982Z,74238
2015-12-30T01:14:31.357Z,74239
2015-12-30T01:14:43.716Z,74238
2015-12-30T01:14:56.076Z,74237
2015-12-30T01:15:08.435Z,74235
2015-12-30T01:15:20.813Z,74232
2015-12-30T01:15:33.204Z,74237
2015-12-30T01:15:45.594Z,74233
2015-12-30T01:15:57.969Z,74236
2015-12-30T01:16:09.626Z,74233
2015-12-30T01:16:21.987Z,74238
2015-12-30T01:16:34.346Z,74232
2015-12-30T01:16:46.690Z,74240
2015-12-30T01:16:59.049Z,74232
2015-12-30T01:17:11.409Z,74239
2015-12-30T01:17:23.771Z,74233
2015-12-30T01:17:36.115Z,74237
2015-12-30T01:17:48.490Z,74235
2015-12-30T01:18:00.849Z,74237
2015-12-30T01:18:13.209Z,74237
2015-12-30T01:18:25.588Z,74233
2015-12-30T01:18:37.228Z,74237
2015-12-30T01:18:49.572Z,74229
2015-12-30T01:19:01.931Z,74232
2015-12-30T01:19:14.275Z,74235
2015-12-30T01:19:26.652Z,74234
2015-12-30T01:19:39.027Z,74232
2015-12-30T01:19:51.371Z,74235
2015-12-30T01:20:03.746Z,74230
2015-12-30T01:20:16.121Z,74235
2015-12-30T01:20:28.483Z,74236
2015-12-30T01:20:40.858Z,74230
2015-12-30T01:20:53.249Z,74233
2015-12-30T01:21:05.640Z,74236
2015-12-30T01:21:18.061Z,74234
2015-12-30T01:21:30.408Z,74233
2015-12-30T01:21:42.768Z,74236
2015-12-30T01:22:24.566Z,74231
2015-12-30T01:22:36.926Z,74233
2015-12-30T01:22:49.285Z,74235
2015-12-30T01:23:01.645Z,74232
2015-12-30T01:23:13.316Z,74235
2015-12-30T01:23:25.679Z,74227
2015-12-30T01:23:38.054Z,74230
2015-12-30T01:23:50.444Z,74229
2015-12-30T01:24:02.819Z,74235
2015-12-30T01:24:15.163Z,74232
2015-12-30T01:24:27.509Z,74228
2015-12-30T01:24:39.868Z,74232
2015-12-30T01:24:52.228Z,74233
2015-12-30T01:25:04.587Z,74232
2015-12-30T01:25:16.946Z,74239
2015-12-30T01:25:29.309Z,74239
2015-12-30T01:25:41.684Z,74234
2015-12-30T01:25:54.059Z,74235
2015-12-30T01:26:06.449Z,74233
2015-12-30T01:26:18.809Z,74238
2015-12-30T01:26:31.171Z,74234
2015-12-30T01:26:43.531Z,74240
2015-12-30T01:26:55.874Z,74231
2015-12-30T01:27:08.218Z,74234
2015-12-30T01:27:20.593Z,74233
2015-12-30T01:27:32.987Z,74233
2015-12-30T01:27:45.346Z,74230
2015-12-30T01:27:57.737Z,74228
2015-12-30T01:28:10.096Z,74237
2015-12-30T01:28:22.455Z,74231
2015-12-30T01:28:34.817Z,74241
2015-12-30T01:28:47.176Z,74229
2015-12-30T01:28:59.520Z,74233
2015-12-30T01:29:11.879Z,74238
2015-12-30T01:29:24.254Z,74227
2015-12-30T01:29:36.633Z,74237
2015-12-30T01:29:49.008Z,74230
2015-12-30T01:30:01.399Z,74230
2015-12-30T01:30:13.774Z,74230
2015-12-30T01:30:26.118Z,74232
2015-12-30T01:30:38.479Z,74230
2015-12-30T01:30:50.838Z,74240
2015-12-30T01:31:03.182Z,74227
2015-12-30T01:31:15.542Z,74235
2015-12-30T01:31:27.901Z,74241
2015-12-30T01:31:39.560Z,74228
2015-12-30T01:31:51.920Z,74236
2015-12-30T01:32:04.295Z,74232
2015-12-30T01:32:16.670Z,74235
2015-12-30T01:32:29.060Z,74233
2015-12-30T01:32:41.437Z,74238
2015-12-30T01:32:53.781Z,74234
2015-12-30T01:33:06.140Z,74230
2015-12-30T01:33:18.500Z,74233
2015-12-30T01:33:30.859Z,74234
2015-12-30T01:33:43.221Z,74233
2015-12-30T01:33:55.565Z,74230
2015-12-30T01:34:07.925Z,74233
2015-12-30T01:34:20.300Z,74227
2015-12-30T01:34:32.675Z,74226
2015-12-30T01:34:45.053Z,74232
2015-12-30T01:34:57.443Z,74231
2015-12-30T01:35:09.818Z,74230
2015-12-30T01:35:22.209Z,74232
2015-12-30T01:35:34.584Z,74229
2015-12-30T01:35:46.931Z,74229
2015-12-30T01:35:59.290Z,74233
2015-12-30T01:36:11.649Z,74232
2015-12-30T01:36:24.009Z,74235
2015-12-30T01:36:36.368Z,74234
2015-12-30T01:36:48.714Z,74229
2015-12-30T01:37:01.073Z,74235
2015-12-30T01:37:13.433Z,74231
2015-12-30T01:37:25.073Z,74234
2015-12-30T01:37:37.448Z,74230
2015-12-30T01:37:49.857Z,74230
2015-12-30T01:38:02.232Z,74232
2015-12-30T01:38:14.607Z,74231
2015-12-30T01:38:26.982Z,74235
2015-12-30T01:38:39.342Z,74227
2015-12-30T01:38:51.689Z,74240
2015-12-30T01:39:04.032Z,74228
2015-12-30T01:39:16.392Z,74230
2015-12-30T01:39:28.767Z,74233
2015-12-30T01:39:41.110Z,74227
2015-12-30T01:39:53.472Z,74225
2015-12-30T01:40:05.831Z,74228
2015-12-30T01:40:18.191Z,74227
2015-12-30T01:40:30.566Z,74236
2015-12-30T01:40:42.956Z,74230
2015-12-30T01:40:54.615Z,74234
2015-12-30T01:41:06.959Z,74227
2015-12-30T01:41:19.334Z,74233
2015-12-30T01:41:31.678Z,74224
2015-12-30T01:41:44.037Z,74233
2015-12-30T01:41:56.400Z,74234
2015-12-30T01:42:08.759Z,74231
2015-12-30T01:42:21.134Z,74233
2015-12-30T01:42:33.525Z,74230
2015-12-30T01:42:45.903Z,74234
2015-12-30T01:42:58.293Z,74228
2015-12-30T01:43:10.684Z,74227
2015-12-30T01:43:23.043Z,74229
2015-12-30T01:43:35.387Z,74231
2015-12-30T01:43:47.749Z,74232
2015-12-30T01:44:00.093Z,74229
2015-12-30T01:44:12.453Z,74236
2015-12-30T01:44:24.796Z,74230
2015-12-30T01:44:37.156Z,74231
2015-12-30T01:44:49.517Z,74237
2015-12-30T01:45:01.876Z,74225
2015-12-30T01:45:14.298Z,74232
2015-12-30T01:45:26.689Z,74225
2015-12-30T01:45:39.033Z,74230
2015-12-30T01:45:51.395Z,74232
2015-12-30T01:46:03.754Z,74228
2015-12-30T01:46:16.114Z,74232
2015-12-30T01:46:27.754Z,74230
2015-12-30T01:46:39.426Z,74230
2015-12-30T01:46:51.773Z,74229
2015-12-30T01:47:04.132Z,74231
2015-12-30T01:47:16.507Z,74231
2015-12-30T01:47:28.867Z,74229
2015-12-30T01:47:41.273Z,74231
2015-12-30T01:47:53.651Z,74232
2015-12-30T01:48:06.042Z,74229
2015-12-30T01:48:18.417Z,74227
2015-12-30T01:48:30.760Z,74232
2015-12-30T01:48:43.104Z,74228
2015-12-30T01:48:55.482Z,74228
2015-12-30T01:49:07.842Z,74227
2015-12-30T01:49:20.201Z,74233
2015-12-30T01:49:32.560Z,74226
2015-12-30T01:49:44.904Z,74225
2015-12-30T01:49:57.265Z,74228
2015-12-30T01:50:09.656Z,74224
2015-12-30T01:50:22.015Z,74231
2015-12-30T01:50:34.390Z,74226
2015-12-30T01:50:46.781Z,74227
2015-12-30T01:50:59.190Z,74227
2015-12-30T01:51:10.862Z,74226
2015-12-30T01:51:23.222Z,74225
2015-12-30T01:51:35.565Z,74227
2015-12-30T01:51:47.909Z,74228
2015-12-30T01:52:00.271Z,74233
2015-12-30T01:52:12.631Z,74227
2015-12-30T01:52:24.990Z,74225
2015-12-30T01:52:37.350Z,74227
2015-12-30T01:52:49.693Z,74224
2015-12-30T01:53:02.070Z,74231
2015-12-30T01:53:14.430Z,74225
2015-12-30T01:53:26.102Z,74231
2015-12-30T01:53:38.492Z,74228
2015-12-30T01:53:50.867Z,74230
2015-12-30T01:54:03.230Z,74230
2015-12-30T01:54:15.573Z,74222
2015-12-30T01:54:27.761Z,74223
2015-12-30T01:54:40.120Z,74226
2015-12-30T01:54:52.480Z,74229
2015-12-30T01:55:04.842Z,74223
2015-12-30T01:55:17.201Z,74228
2015-12-30T01:55:29.545Z,74227
2015-12-30T01:55:41.920Z,74220
2015-12-30T01:55:54.279Z,74229
2015-12-30T01:56:06.673Z,74224
2015-12-30T01:56:19.048Z,74224
2015-12-30T01:56:31.439Z,74228
2015-12-30T01:56:43.814Z,74230
2015-12-30T01:56:56.189Z,74223
2015-12-30T01:57:08.378Z,74225
2015-12-30T01:57:20.722Z,74225
2015-12-30T01:57:33.081Z,74226
2015-12-30T01:57:45.409Z,74226
2015-12-30T01:57:57.753Z,74225
2015-12-30T01:58:10.100Z,74225
2015-12-30T01:58:22.459Z,74226
2015-12-30T01:58:34.834Z,74226
2015-12-30T01:58:47.194Z,74229
2015-12-30T01:58:59.584Z,74228
2015-12-30T01:59:11.978Z,74224
2015-12-30T01:59:24.337Z,74228
2015-12-30T01:59:36.681Z,74231
2015-12-30T01:59:49.040Z,74225
2015-12-30T02:00:01.384Z,74228
2015-12-30T02:00:13.730Z,74226
2015-12-30T02:00:26.089Z,74229
2015-12-30T02:00:38.433Z,74228
2015-12-30T02:00:50.792Z,74226
2015-12-30T02:01:03.152Z,74228
2015-12-30T02:01:15.405Z,74220
2015-12-30T02:01:27.644Z,74230
2015-12-30T02:01:39.898Z,74227
2015-12-30T02:01:52.257Z,74227
2015-12-30T02:02:04.632Z,74227
2015-12-30T02:02:16.932Z,74226
2015-12-30T02:02:29.120Z,74231
2015-12-30T02:02:41.526Z,74228
2015-12-30T02:02:53.885Z,74232
2015-12-30T02:03:05.542Z,74229
2015-12-30T02:03:17.904Z,74227
2015-12-30T02:03:30.279Z,74224
2015-12-30T02:03:42.638Z,74225
2015-12-30T02:03:55.013Z,74222
2015-12-30T02:04:06.701Z,74224
2015-12-30T02:04:19.079Z,74224
2015-12-30T02:04:31.469Z,74220
2015-12-30T02:04:43.844Z,74218
2015-12-30T02:04:56.204Z,74224
2015-12-30T02:05:08.579Z,74222
2015-12-30T02:05:20.925Z,74223
2015-12-30T02:05:33.284Z,74221
2015-12-30T02:05:45.643Z,74225
2015-12-30T02:05:58.003Z,74222
2015-12-30T02:06:10.378Z,74224
2015-12-30T02:06:22.771Z,74219
2015-12-30T02:06:35.162Z,74222
2015-12-30T02:06:47.521Z,74221
2015-12-30T02:06:59.881Z,74223
2015-12-30T02:07:12.224Z,74222
2015-12-30T02:07:24.587Z,74223
2015-12-30T02:07:36.931Z,74222
2015-12-30T02:07:49.306Z,74226
2015-12-30T02:08:01.649Z,74221
2015-12-30T02:08:14.024Z,74219
2015-12-30T02:08:26.386Z,74225
2015-12-30T02:08:38.761Z,74225
2015-12-30T02:08:51.136Z,74225
2015-12-30T02:09:03.526Z,74219
2015-12-30T02:09:15.917Z,74221
2015-12-30T02:09:28.265Z,74220
2015-12-30T02:09:40.624Z,74217
2015-12-30T02:09:52.983Z,74217
2015-12-30T02:10:05.343Z,74219
2015-12-30T02:10:17.718Z,74215
2015-12-30T02:10:30.064Z,74219
2015-12-30T02:10:42.423Z,74218
2015-12-30T02:10:54.798Z,74219
2015-12-30T02:11:07.173Z,74222
2015-12-30T02:11:19.548Z,74222
2015-12-30T02:11:31.957Z,74225
2015-12-30T02:11:44.332Z,74218
2015-12-30T02:11:56.723Z,74220
2015-12-30T02:12:09.082Z,74220
2015-12-30T02:12:21.442Z,74220
2015-12-30T02:12:33.788Z,74217
2015-12-30T02:12:46.148Z,74216
2015-12-30T02:12:58.491Z,74217
2015-12-30T02:13:10.851Z,74219
2015-12-30T02:13:23.195Z,74214
2015-12-30T02:13:35.556Z,74215
2015-12-30T02:13:47.915Z,74213
2015-12-30T02:14:00.290Z,74217
2015-12-30T02:14:12.681Z,74215
2015-12-30T02:14:25.056Z,74216
2015-12-30T02:14:37.450Z,74213
2015-12-30T02:14:49.793Z,74213
2015-12-30T02:15:02.153Z,74211
2015-12-30T02:15:14.496Z,74219
2015-12-30T02:15:26.856Z,74217
2015-12-30T02:15:39.203Z,74217
2015-12-30T02:15:51.546Z,74218
2015-12-30T02:16:03.921Z,74212
2015-12-30T02:16:16.296Z,74214
2015-12-30T02:16:28.659Z,74214
2015-12-30T02:16:41.049Z,74216
2015-12-30T02:16:53.440Z,74220
2015-12-30T02:17:05.815Z,74213
2015-12-30T02:17:18.206Z,74211
2015-12-30T02:17:30.598Z,74218
2015-12-30T02:17:42.942Z,74217
2015-12-30T02:17:55.301Z,74219
2015-12-30T02:18:06.942Z,74218
2015-12-30T02:18:19.301Z,74211
2015-12-30T02:18:31.648Z,74214
2015-12-30T02:18:44.023Z,74218
2015-12-30T02:18:56.382Z,74212
2015-12-30T02:19:08.789Z,74211
2015-12-30T02:19:21.164Z,74214
2015-12-30T02:19:33.573Z,74213
2015-12-30T02:19:45.964Z,74213
2015-12-30T02:19:58.323Z,74219
2015-12-30T02:20:10.667Z,74214
2015-12-30T02:20:23.026Z,74215
2015-12-30T02:20:35.387Z,74216
2015-12-30T02:20:47.747Z,74216
2015-12-30T02:21:00.106Z,74217
2015-12-30T02:21:12.466Z,74217
2015-12-30T02:21:24.825Z,74213
2015-12-30T02:21:37.204Z,74223
2015-12-30T02:21:49.563Z,74222
2015-12-30T02:22:01.938Z,74220
2015-12-30T02:22:14.313Z,74228
2015-12-30T02:22:26.704Z,74217
2015-12-30T02:22:39.050Z,74220
2015-12-30T02:22:51.393Z,74216
2015-12-30T02:23:03.753Z,74216
2015-12-30T02:23:16.112Z,74219
2015-12-30T02:23:28.456Z,74218
2015-12-30T02:23:40.818Z,74217
2015-12-30T02:23:53.162Z,74209
2015-12-30T02:24:05.537Z,74213
2015-12-30T02:24:17.912Z,74215
2015-12-30T02:24:30.287Z,74214
2015-12-30T02:24:42.664Z,74212
2015-12-30T02:24:55.070Z,74204
2015-12-30T02:25:07.430Z,74211
2015-12-30T02:25:19.789Z,74213
2015-12-30T02:25:32.133Z,74215
2015-12-30T02:25:44.480Z,74211
2015-12-30T02:25:56.839Z,74216
2015-12-30T02:26:09.198Z,74208
2015-12-30T02:26:21.542Z,74213
2015-12-30T02:26:33.917Z,74207
2015-12-30T02:26:46.295Z,74213
2015-12-30T02:26:58.654Z,74211
2015-12-30T02:27:11.045Z,74215
2015-12-30T02:27:23.436Z,74210
2015-12-30T02:27:35.826Z,74207
2015-12-30T02:27:48.189Z,74210
2015-12-30T02:28:00.532Z,74202
2015-12-30T02:28:12.892Z,74207
2015-12-30T02:28:25.251Z,74207
2015-12-30T02:28:37.595Z,74203
2015-12-30T02:28:49.942Z,74205
2015-12-30T02:29:02.160Z,74205
2015-12-30T02:29:14.520Z,74214
2015-12-30T02:29:26.879Z,74209
2015-12-30T02:29:39.254Z,74206
2015-12-30T02:29:51.647Z,74207
2015-12-30T02:30:04.038Z,74208
2015-12-30T02:30:16.429Z,74206
2015-12-30T02:30:28.788Z,74204
2015-12-30T02:30:41.148Z,74205
2015-12-30T02:30:53.495Z,74199
2015-12-30T02:31:05.854Z,74208
2015-12-30T02:31:18.213Z,74215
2015-12-30T02:31:30.557Z,74207
2015-12-30T02:31:42.916Z,74212
2015-12-30T02:31:55.279Z,74203
2015-12-30T02:32:07.623Z,74206
2015-12-30T02:32:19.998Z,74206
2015-12-30T02:32:32.388Z,74201
2015-12-30T02:32:44.779Z,74208
2015-12-30T02:32:57.171Z,74205
2015-12-30T02:33:09.531Z,74206
2015-12-30T02:33:21.875Z,74206
2015-12-30T02:33:34.234Z,74204
2015-12-30T02:33:46.593Z,74206
2015-12-30T02:33:58.956Z,74206
2015-12-30T02:34:11.299Z,74205
2015-12-30T02:34:23.659Z,74206
2015-12-30T02:34:36.003Z,74204
2015-12-30T02:34:48.378Z,74204
2015-12-30T02:35:00.740Z,74202
2015-12-30T02:35:13.115Z,74207
2015-12-30T02:35:25.490Z,74204
2015-12-30T02:35:37.865Z,74200
2015-12-30T02:35:50.240Z,74205
2015-12-30T02:36:02.586Z,74208
2015-12-30T02:36:14.929Z,74207
2015-12-30T02:36:27.289Z,74205
2015-12-30T02:36:39.633Z,74205
2015-12-30T02:36:51.992Z,74208
2015-12-30T02:37:04.355Z,74209
2015-12-30T02:37:16.715Z,74202
2015-12-30T02:37:29.058Z,74204
2015-12-30T02:37:40.730Z,74206
2015-12-30T02:37:53.105Z,74208
2015-12-30T02:38:05.498Z,74209
2015-12-30T02:38:17.873Z,74205
2015-12-30T02:38:30.264Z,74204
2015-12-30T02:38:42.685Z,74204
2015-12-30T02:38:55.045Z,74209
2015-12-30T02:39:07.392Z,74205
2015-12-30T02:39:19.735Z,74204